0°C Temp
0°C Dewpoint
100% Humidity
Temperature
8 KM/H
5 MPH
4 KTS
70°
East North
East

Wind Speed
Misty
Conditions
Pressure 1025.92 (hPa) - 30.3 (in)
Visibility 3.1 (mi) - 5.0 (km)

Current Conditions
EKCH
Location 55(km)
Metar :EKCH 280650Z 07004KT 050V110 5000 BR OVC002 M00/M00 Q1026 NOSIG
Sat 28th November 08:50 am

Airport
  Metar Aviation API Data Provided by https://www.checkwx.com/ PHP scripts by weather34.com ©2020